Observations for Trim Market St
| Time | AQI | Temp °C | Hum % | Pres Pa | CO μg/m³ | H₂S μg/m³ | NO μg/m³ | NO₂ μg/m³ | O₃ μg/m³ | SO₂ μg/m³ | PM1 μg/m³ | PM2.5 μg/m³ | PM10 μg/m³ |
|---|---|---|---|---|---|---|---|---|---|---|---|---|---|
| Monday 24 August 2026 | |||||||||||||
| 11:28 | 1 | 36.9 | 28 | 66,623 | 0 | 0 | 1.81 | 24.13 | 86.65 | 0 | 1.43 | 5.06 | 5.56 |
| 11:27 | 1 | 36.9 | 27 | 66,623 | 0.7 | 0 | 1.82 | 33.39 | 91.65 | 0 | 0.71 | 4.52 | 4.97 |
| 11:26 | 1 | 36.8 | 27 | 66,623 | 0.65 | 0 | 1.81 | 42.88 | 81.46 | 0 | 0.71 | 5.61 | 5.76 |
| 11:25 | 1 | 36.8 | 27 | 66,625 | 0 | 0 | 1.79 | 31.34 | 79.92 | 0 | 1.43 | 5.62 | 6.18 |
| 11:24 | 1 | 36.8 | 27 | 66,627 | 0 | 0 | 1.63 | 21.95 | 89.66 | 0 | 0.71 | 4.52 | 4.98 |
| 11:23 | 1 | 36.8 | 27 | 66,627 | 0 | 0 | 1.62 | 23.84 | 88.08 | 0 | 2.14 | 6.17 | 6.79 |
| 11:22 | 1 | 36.8 | 27 | 66,608 | 0 | 0 | 1.72 | 19.83 | 81.57 | 0 | 2.14 | 5.61 | 6.17 |
| 11:21 | 1 | 36.8 | 28 | 66,610 | 0 | 0 | 1.76 | 23.36 | 77.25 | 0 | 2.14 | 5.6 | 6.16 |
| 11:17 | 1 | 36.5 | 28 | 66,556 | 0.65 | 0 | 1.73 | 23.37 | 83.87 | 0 | 1.43 | 5.02 | 6.65 |
| 11:16 | 1 | 36.4 | 28 | 66,541 | 0 | 0 | 1.68 | 22.85 | 81.21 | 0 | 0.71 | 5.57 | 6.13 |
| 11:15 | 1 | 36.4 | 28 | 66,548 | 0 | 0 | 1.68 | 20.99 | 77.03 | 0 | 0.71 | 5.02 | 5.52 |
| 11:09 | 1 | 36 | 29 | 66,511 | 0 | 0 | 1.62 | 18.6 | 77.67 | 0 | 0.71 | 5.53 | 6.65 |
| 11:04 | 1 | 35.5 | 30 | 66,489 | 0.39 | 0 | 1.92 | 27.44 | 69.04 | 0 | 1.43 | 5.46 | 6 |
| 11:02 | 1 | 35.3 | 31 | 66,429 | 0 | 0 | 1.88 | 21.22 | 66.09 | 0 | 0.71 | 5.44 | 5.98 |
| 11:01 | 1 | 35.3 | 31 | 66,414 | 0 | 0 | 1.8 | 24.62 | 71.09 | 0 | 2.14 | 5.97 | 6.57 |
| 11:00 | 1 | 35.2 | 31 | 66,400 | 0 | 0 | 1.79 | 23.11 | 70.88 | 0 | 1.43 | 5.97 | 6.67 |
| 10:59 | 1 | 35.2 | 31 | 66,408 | 0 | 0 | 1.76 | 15.13 | 73.92 | 0 | 0.71 | 4.88 | 5.37 |
| 10:58 | 1 | 35.1 | 31 | 66,427 | 0.01 | 0 | 1.72 | 14.76 | 76.12 | 0 | 0.71 | 4.34 | 4.78 |
| 10:56 | 1 | 35.1 | 32 | 66,408 | 0.08 | 0 | 1.74 | 17.91 | 69.12 | 0 | 1.43 | 4.87 | 5.36 |
| 10:55 | 1 | 35.1 | 32 | 66,423 | 0.09 | 0 | 1.75 | 17.47 | 71.72 | 0 | 1.43 | 5.39 | 5.82 |